Time;durP1;ratioP1;P1;durP2;ratioP2;P2;SDS_P1;SDS_P2;PMS_P1;PMS_P2;Temp;Humidity;BMP_temperature;BMP_pressure;BME280_temperature;BME280_humidity;BME280_pressure;Samples;Min_cycle;Max_cycle;Signal;HPM_P1;HPM_P2
2021/09/01 00:00:36;;;;;;;3.22;2.92;;;;;;;25.12;45.42;101220.78;1746106;81;21709;-49
2021/09/01 00:03:05;;;;;;;4.45;2.95;;;;;;;25.12;45.51;101222.11;1751418;82;21524;-50
2021/09/01 00:05:32;;;;;;;7.83;2.98;;;;;;;25.10;45.56;101214.69;1753936;82;21008;-49
2021/09/01 00:07:59;;;;;;;4.78;3.12;;;;;;;25.09;45.58;101218.80;1744436;82;21072;-48
2021/09/01 00:10:25;;;;;;;3.80;3.30;;;;;;;25.07;45.62;101218.93;1745232;82;20998;-49
2021/09/01 00:12:52;;;;;;;4.60;3.02;;;;;;;25.06;45.75;101221.20;1745962;82;21037;-49
2021/09/01 00:15:20;;;;;;;3.80;2.65;;;;;;;25.07;45.60;101208.28;1745509;82;21041;-48
2021/09/01 00:17:47;;;;;;;6.65;3.40;;;;;;;25.05;45.54;101215.53;1742473;82;21054;-49
2021/09/01 00:20:14;;;;;;;5.55;2.90;;;;;;;25.04;45.62;101217.81;1749359;81;21041;-49
2021/09/01 00:22:40;;;;;;;3.80;3.35;;;;;;;25.04;45.54;101209.82;1751864;81;21461;-49
2021/09/01 00:25:08;;;;;;;3.40;3.10;;;;;;;25.02;45.59;101214.41;1748036;81;21516;-49
2021/09/01 00:27:35;;;;;;;5.60;3.47;;;;;;;25.00;45.69;101205.69;1740727;81;21061;-48
2021/09/01 00:30:01;;;;;;;3.80;2.98;;;;;;;24.99;45.68;101209.34;1744070;82;21008;-49
2021/09/01 00:32:28;;;;;;;7.22;3.30;;;;;;;24.99;45.77;101212.00;1745053;82;21501;-48
2021/09/01 00:34:54;;;;;;;5.00;3.72;;;;;;;24.98;45.81;101216.94;1750469;81;20981;-49
2021/09/01 00:37:22;;;;;;;4.87;3.55;;;;;;;24.95;45.82;101211.38;1750425;82;21037;-49
2021/09/01 00:39:49;;;;;;;5.90;3.20;;;;;;;24.98;45.87;101215.61;1742832;82;21021;-49
2021/09/01 00:42:15;;;;;;;5.45;3.25;;;;;;;24.98;45.95;101207.63;1748817;82;21033;-49
2021/09/01 00:44:41;;;;;;;3.90;3.17;;;;;;;24.98;45.86;101211.14;1744109;82;21012;-49
2021/09/01 00:47:08;;;;;;;4.60;3.20;;;;;;;24.98;45.95;101204.95;1746598;81;21037;-49
2021/09/01 00:49:34;;;;;;;5.00;3.20;;;;;;;24.98;46.01;101207.63;1744929;82;21473;-49
2021/09/01 00:52:01;;;;;;;4.35;3.70;;;;;;;24.98;46.14;101204.95;1743448;82;21447;-49
2021/09/01 00:54:30;;;;;;;3.67;3.30;;;;;;;24.95;46.12;101191.89;1746122;82;21521;-49
2021/09/01 00:57:00;;;;;;;5.12;3.27;;;;;;;24.93;46.15;101188.50;1746287;81;20970;-49
2021/09/01 00:59:27;;;;;;;6.80;3.35;;;;;;;24.91;46.14;101181.11;1739434;82;21606;-49
2021/09/01 01:01:54;;;;;;;5.00;3.00;;;;;;;24.89;46.25;101179.04;1742813;82;21054;-49
2021/09/01 01:04:26;;;;;;;2.80;2.60;;;;;;;24.88;46.07;101178.66;1740770;82;21077;-49
2021/09/01 01:06:56;;;;;;;6.12;3.00;;;;;;;24.86;46.03;101180.11;1718009;83;21034;-49
2021/09/01 01:09:23;;;;;;;5.42;3.30;;;;;;;24.87;45.86;101179.63;1718603;83;21003;-49
2021/09/01 01:12:09;;;;;;;4.87;3.05;;;;;;;24.85;46.02;101174.91;1711098;83;21031;-49
2021/09/01 01:14:48;;;;;;;6.15;3.12;;;;;;;24.87;45.91;101172.98;1718864;83;21564;-49
2021/09/01 01:17:17;;;;;;;4.72;3.20;;;;;;;24.87;45.83;101172.47;1722789;83;21018;-48
2021/09/01 01:19:48;;;;;;;5.35;3.17;;;;;;;24.87;45.84;101166.33;1713631;83;21069;-49
2021/09/01 01:22:18;;;;;;;5.20;3.67;;;;;;;24.88;45.71;101165.34;1715249;82;21562;-49
2021/09/01 01:24:57;;;;;;;5.28;3.25;;;;;;;24.88;45.73;101168.86;1635408;86;21070;-48
2021/09/01 01:27:42;;;;;;;4.22;3.33;;;;;;;24.86;45.61;101164.14;1630225;87;21141;-49
2021/09/01 01:30:18;;;;;;;5.72;3.30;;;;;;;24.84;45.77;101166.54;1636887;86;21070;-49
2021/09/01 01:32:47;;;;;;;3.45;3.15;;;;;;;24.80;45.87;101156.61;1643528;86;21129;-49
2021/09/01 01:35:36;;;;;;;5.53;3.15;;;;;;;24.77;46.02;101158.16;1629176;87;21077;-49
2021/09/01 01:38:05;;;;;;;5.25;2.80;;;;;;;24.73;46.08;101154.02;1605989;89;21045;-49
2021/09/01 01:40:32;;;;;;;6.67;3.05;;;;;;;24.68;46.05;101152.17;1599660;88;21081;-48
2021/09/01 01:42:59;;;;;;;3.27;2.98;;;;;;;24.67;45.96;101149.59;1609338;88;21162;-49
2021/09/01 01:45:36;;;;;;;3.05;2.75;;;;;;;24.65;45.91;101146.20;1594868;89;21064;-49
2021/09/01 01:48:04;;;;;;;7.70;3.33;;;;;;;24.63;45.97;101137.48;1589580;89;21057;-49
2021/09/01 01:50:34;;;;;;;3.58;3.25;;;;;;;24.64;46.19;101144.52;1581348;89;21078;-49
2021/09/01 01:53:00;;;;;;;4.92;3.47;;;;;;;24.64;46.37;101134.73;1588579;89;21045;-49
2021/09/01 01:55:27;;;;;;;4.35;3.40;;;;;;;24.65;46.54;101138.22;1581614;89;21090;-49
2021/09/01 01:57:54;;;;;;;7.10;3.35;;;;;;;24.65;46.74;101132.89;1592293;89;21087;-49
2021/09/01 02:00:20;;;;;;;7.17;3.47;;;;;;;24.64;46.87;101134.73;1580738;89;21050;-49
2021/09/01 02:02:46;;;;;;;4.80;3.47;;;;;;;24.64;47.07;101136.54;1585313;89;21205;-49
2021/09/01 02:05:13;;;;;;;12.10;4.45;;;;;;;24.63;46.98;101126.84;1581956;89;21119;-49
2021/09/01 02:07:39;;;;;;;7.05;3.87;;;;;;;24.61;47.00;101128.77;1590761;89;21172;-49
2021/09/01 02:10:08;;;;;;;6.65;4.10;;;;;;;24.59;47.20;101121.37;1583794;89;21557;-49
2021/09/01 02:12:35;;;;;;;7.95;3.33;;;;;;;24.57;47.36;101124.63;1587845;89;21565;-49
2021/09/01 02:15:05;;;;;;;7.97;3.80;;;;;;;24.57;47.38;101124.63;1597013;89;21093;-50
2021/09/01 02:17:32;;;;;;;9.90;4.50;;;;;;;24.53;47.50;101125.83;1589642;89;21069;-49
2021/09/01 02:19:59;;;;;;;9.55;4.70;;;;;;;24.52;47.49;101126.80;1592554;89;21055;-49
2021/09/01 02:22:26;;;;;;;8.13;3.95;;;;;;;24.52;47.53;101122.34;1669095;85;21629;-49
2021/09/01 02:24:52;;;;;;;7.80;4.60;;;;;;;24.52;47.66;101126.80;1679071;85;21695;-49
2021/09/01 02:27:19;;;;;;;14.73;3.92;;;;;;;24.51;47.52;101129.94;1676221;85;21518;-49
2021/09/01 02:29:45;;;;;;;5.83;3.37;;;;;;;24.50;47.59;101124.73;1682009;85;21509;-48
2021/09/01 02:32:12;;;;;;;5.00;3.42;;;;;;;24.47;47.66;101126.28;1683881;85;21526;-48
2021/09/01 02:34:39;;;;;;;4.05;3.30;;;;;;;24.46;47.74;101120.61;1680535;84;21015;-49
2021/09/01 02:37:05;;;;;;;4.62;3.27;;;;;;;24.45;47.87;101121.55;1682068;84;21508;-49
2021/09/01 02:39:31;;;;;;;9.38;3.62;;;;;;;24.44;48.11;101115.88;1693349;84;21583;-49
2021/09/01 02:41:58;;;;;;;5.40;3.60;;;;;;;24.43;48.40;101109.70;1685381;84;21513;-49
2021/09/01 02:44:24;;;;;;;4.50;3.33;;;;;;;24.43;48.46;101110.17;1729760;81;21037;-49
2021/09/01 02:46:52;;;;;;;6.17;3.02;;;;;;;24.44;48.69;101110.56;1741780;82;21049;-49
2021/09/01 02:49:18;;;;;;;7.00;3.00;;;;;;;24.45;48.90;101112.23;1746579;82;21002;-49
2021/09/01 02:51:45;;;;;;;6.30;3.33;;;;;;;24.46;48.91;101107.30;1747382;81;20969;-50
2021/09/01 02:54:11;;;;;;;6.60;3.50;;;;;;;24.47;48.99;101110.31;1744603;82;20998;-49
2021/09/01 02:56:38;;;;;;;12.28;3.65;;;;;;;24.48;48.81;101114.69;1742760;82;21014;-49
2021/09/01 02:59:05;;;;;;;10.78;4.10;;;;;;;24.49;49.13;101103.07;1741293;82;21576;-49
2021/09/01 03:01:31;;;;;;;11.05;3.83;;;;;;;24.48;49.36;101106.23;1743347;82;21033;-49
2021/09/01 03:03:58;;;;;;;10.58;4.15;;;;;;;24.48;49.66;101104.05;1742886;82;21026;-49
2021/09/01 03:06:25;;;;;;;10.25;3.65;;;;;;;24.47;49.79;101105.85;1742082;81;21581;-49
2021/09/01 03:08:51;;;;;;;7.33;4.20;;;;;;;24.48;50.01;101098.73;1741939;82;21088;-49
2021/09/01 03:11:18;;;;;;;6.85;3.60;;;;;;;24.49;50.08;101103.07;1743837;82;21005;-49
2021/09/01 03:13:46;;;;;;;4.17;3.77;;;;;;;24.50;50.38;101102.13;1740934;82;21029;-49
2021/09/01 03:16:14;;;;;;;4.08;3.50;;;;;;;24.53;50.76;101096.56;1749823;82;21040;-49
2021/09/01 03:18:41;;;;;;;10.00;3.67;;;;;;;24.56;51.32;101096.34;1746427;82;21632;-49
2021/09/01 03:23:37;;;;;;;5.83;2.95;;;;;;;24.62;52.14;101093.23;1717234;83;21573;-49
2021/09/01 03:26:04;;;;;;;3.52;2.87;;;;;;;24.69;52.86;101099.80;1715632;83;21124;-49
2021/09/01 03:28:31;;;;;;;3.55;3.08;;;;;;;24.75;53.42;101096.71;1715871;83;21006;-49
2021/09/01 03:30:58;;;;;;;4.33;2.77;;;;;;;24.82;53.95;101100.12;1713675;83;21553;-49
2021/09/01 03:33:24;;;;;;;2.80;2.60;;;;;;;24.91;54.43;101098.58;1715916;83;21034;-49
2021/09/01 03:35:51;;;;;;;5.17;2.33;;;;;;;24.99;54.69;101106.83;1716652;83;21108;-49
2021/09/01 03:38:17;;;;;;;3.42;2.60;;;;;;;25.07;54.83;101109.75;1714267;83;21038;-49
2021/09/01 03:40:44;;;;;;;2.72;2.52;;;;;;;25.15;55.13;101104.69;1714626;83;21061;-49
2021/09/01 03:43:10;;;;;;;3.87;2.95;;;;;;;25.23;55.41;101106.28;1714220;83;21038;-50
2021/09/01 03:45:37;;;;;;;3.42;2.87;;;;;;;25.32;55.50;101103.39;1714410;83;20978;-49
2021/09/01 03:48:05;;;;;;;7.80;3.12;;;;;;;25.40;55.49;101109.83;1717568;83;21533;-49
2021/09/01 03:50:31;;;;;;;5.83;3.27;;;;;;;25.49;55.52;101114.96;1715282;83;21533;-49
2021/09/01 03:52:58;;;;;;;5.55;3.35;;;;;;;25.56;55.66;101119.68;1715417;83;21061;-49
2021/09/01 03:55:24;;;;;;;3.42;3.10;;;;;;;25.64;55.77;101129.25;1717933;83;21711;-49
2021/09/01 03:57:53;;;;;;;12.73;3.70;;;;;;;25.71;55.71;101127.81;1715514;83;21029;-49
2021/09/01 04:00:19;;;;;;;7.00;3.05;;;;;;;25.79;55.54;101132.53;1716021;83;21038;-50
2021/09/01 04:02:46;;;;;;;7.35;3.08;;;;;;;25.85;55.32;101125.38;1711737;83;21132;-50
2021/09/01 04:05:13;;;;;;;4.95;3.45;;;;;;;25.89;55.04;101128.64;1715774;83;21081;-50
2021/09/01 04:07:40;;;;;;;10.90;3.02;;;;;;;25.96;54.87;101128.53;1716861;83;21050;-49
2021/09/01 04:10:08;;;;;;;6.37;3.17;;;;;;;26.00;54.69;101123.31;1712364;83;21014;-50
2021/09/01 04:12:35;;;;;;;3.05;2.67;;;;;;;26.05;54.54;101129.14;1714383;83;21029;-49
2021/09/01 04:15:01;;;;;;;5.25;3.33;;;;;;;26.08;54.48;101135.58;1714716;83;20967;-49
2021/09/01 04:17:30;;;;;;;4.70;2.87;;;;;;;26.13;54.45;101130.73;1714337;83;21042;-49
2021/09/01 04:19:57;;;;;;;5.10;2.70;;;;;;;26.16;54.31;101132.66;1723315;82;21112;-49
2021/09/01 04:22:23;;;;;;;6.33;3.05;;;;;;;26.20;54.12;101127.92;1741332;82;21049;-49
2021/09/01 04:24:50;;;;;;;3.35;2.72;;;;;;;26.22;53.93;101125.98;1749340;82;21075;-49
2021/09/01 04:27:16;;;;;;;6.00;3.25;;;;;;;26.27;52.79;101129.13;1752759;82;21057;-50
2021/09/01 04:29:43;;;;;;;4.37;3.08;;;;;;;26.27;52.79;101129.13;1743807;82;21025;-49
2021/09/01 04:32:09;;;;;;;4.83;3.20;;;;;;;26.29;51.99;101125.37;1747673;81;21076;-50
2021/09/01 04:34:36;;;;;;;32.83;4.87;;;;;;;26.32;51.45;101127.78;1746411;81;21013;-49
2021/09/01 04:37:03;;;;;;;6.33;2.80;;;;;;;26.35;50.98;101124.87;1747902;82;21009;-49
2021/09/01 04:39:30;;;;;;;3.55;2.22;;;;;;;26.37;50.51;101119.41;1752859;81;21013;-49
2021/09/01 04:41:56;;;;;;;3.10;2.80;;;;;;;26.39;48.78;101117.45;1742162;81;21002;-49
2021/09/01 04:44:24;;;;;;;3.00;2.50;;;;;;;26.39;48.78;101117.45;1746583;82;21547;-48
2021/09/01 04:46:51;;;;;;;5.05;3.33;;;;;;;26.40;48.79;101119.14;1747101;82;21060;-49
2021/09/01 04:49:18;;;;;;;5.10;3.33;;;;;;;26.41;48.86;101104.84;1746086;81;21084;-49
2021/09/01 04:51:44;;;;;;;4.42;3.17;;;;;;;26.41;48.86;101104.84;1745660;82;21058;-50
2021/09/01 04:54:11;;;;;;;9.15;4.20;;;;;;;26.41;49.27;101102.17;1741790;82;21643;-49
2021/09/01 04:56:38;;;;;;;5.90;3.17;;;;;;;26.41;49.27;101104.84;1749406;82;21037;-49
2021/09/01 04:59:05;;;;;;;3.60;2.30;;;;;;;26.42;49.50;101103.88;1749734;82;21065;-49
2021/09/01 05:01:32;;;;;;;6.45;3.00;;;;;;;26.40;49.62;101093.31;1746440;82;21034;-49
2021/09/01 05:03:59;;;;;;;3.40;3.10;;;;;;;26.43;49.61;101094.88;1742888;81;21825;-49
2021/09/01 05:06:27;;;;;;;5.62;3.15;;;;;;;26.40;49.87;101089.78;1743027;82;21033;-50
2021/09/01 05:08:54;;;;;;;6.90;4.60;;;;;;;26.46;50.17;101098.65;1742022;81;21498;-49
2021/09/01 05:11:23;;;;;;;5.42;3.40;;;;;;;26.50;49.94;101095.58;1745340;82;21017;-49
2021/09/01 05:13:50;;;;;;;4.80;4.30;;;;;;;26.50;49.94;101095.58;1739061;82;21014;-49
2021/09/01 05:16:16;;;;;;;5.67;3.90;;;;;;;26.50;49.07;101088.08;1747715;82;21042;-49
2021/09/01 05:18:43;;;;;;;7.62;5.80;;;;;;;26.54;48.36;101089.52;1742580;82;20997;-50
2021/09/01 05:21:16;;;;;;;4.03;3.47;;;;;;;26.58;47.74;101081.62;1744410;82;20994;-49
2021/09/01 05:23:44;;;;;;;3.12;2.75;;;;;;;26.58;47.74;101081.62;1747288;81;21033;-49
2021/09/01 05:26:11;;;;;;;4.80;2.98;;;;;;;26.61;47.49;101084.02;1741006;82;21539;-49
2021/09/01 05:28:38;;;;;;;4.03;3.22;;;;;;;26.66;47.58;101078.30;1737325;81;20990;-49
2021/09/01 05:31:06;;;;;;;5.58;3.20;;;;;;;26.66;47.58;101078.30;1742037;82;21529;-48
2021/09/01 05:33:37;;;;;;;4.22;3.15;;;;;;;26.67;47.60;101079.50;1742292;82;21509;-49
2021/09/01 05:36:05;;;;;;;4.90;3.12;;;;;;;26.67;47.41;101066.16;1753737;82;20977;-49
2021/09/01 05:38:33;;;;;;;3.85;2.50;;;;;;;26.73;46.87;101069.67;1753576;81;21008;-48
2021/09/01 05:41:01;;;;;;;4.47;3.37;;;;;;;26.73;46.87;101069.67;1743501;82;21050;-48
2021/09/01 05:43:27;;;;;;;4.12;3.33;;;;;;;26.75;46.20;101070.39;1745745;81;21508;-49
2021/09/01 05:45:54;;;;;;;3.95;3.50;;;;;;;26.77;46.16;101072.44;1753529;82;21064;-48
2021/09/01 05:48:22;;;;;;;4.40;3.55;;;;;;;26.80;46.31;101080.20;1745647;82;21080;-48
2021/09/01 05:50:54;;;;;;;5.50;3.77;;;;;;;26.82;46.45;101078.25;1743711;82;20982;-49
2021/09/01 05:53:21;;;;;;;7.92;4.00;;;;;;;26.85;46.51;101071.34;1750848;82;21072;-48
2021/09/01 05:55:52;;;;;;;7.22;4.20;;;;;;;26.89;46.73;101070.09;1738529;82;21082;-48
2021/09/01 05:58:20;;;;;;;;;;;;;;;26.93;46.39;101070.20;1746459;82;21033;-48
2021/09/01 06:00:55;;;;;;;6.80;3.87;;;;;;;26.98;44.86;101074.64;1741063;82;20104;-48
2021/09/01 06:03:32;;;;;;;7.22;4.97;;;;;;;27.10;44.37;101070.09;1715840;82;21063;-49
2021/09/01 06:06:01;;;;;;;6.85;4.37;;;;;;;27.35;44.92;101076.37;1669108;84;21053;-49
2021/09/01 06:08:34;;;;;;;5.83;4.50;;;;;;;27.70;44.21;101064.78;1666550;84;21545;-49
2021/09/01 06:11:04;;;;;;;7.45;4.40;;;;;;;28.09;43.05;101065.28;1681133;84;21508;-49
2021/09/01 06:13:32;;;;;;;7.60;4.70;;;;;;;28.42;42.13;101065.39;1671914;84;21636;-48
2021/09/01 06:15:59;;;;;;;8.30;5.40;;;;;;;28.64;41.43;101058.48;1671061;85;21059;-49
2021/09/01 06:18:27;;;;;;;7.15;4.67;;;;;;;28.88;41.09;101063.38;1658602;84;21095;-49
2021/09/01 06:20:54;;;;;;;9.15;4.78;;;;;;;29.11;40.79;101064.75;1670247;85;21022;-49
2021/09/01 06:23:21;;;;;;;6.35;4.90;;;;;;;29.29;40.14;101069.73;1677458;85;21066;-48
2021/09/01 06:25:48;;;;;;;6.08;4.80;;;;;;;29.38;40.23;101070.70;1666686;86;21092;-49
2021/09/01 06:28:17;;;;;;;8.53;5.03;;;;;;;29.36;40.26;101071.34;1671911;85;21042;-48
2021/09/01 06:30:43;;;;;;;6.90;3.72;;;;;;;29.32;40.61;101068.61;1669363;85;21538;-48
2021/09/01 06:33:11;;;;;;;17.92;7.50;;;;;;;29.29;40.15;101075.59;1668483;85;21024;-48
2021/09/01 06:35:41;;;;;;;13.65;6.42;;;;;;;29.26;39.67;101071.88;1671484;85;21050;-48
2021/09/01 06:38:08;;;;;;;8.23;5.10;;;;;;;29.21;38.72;101068.77;1641110;85;21100;-48
2021/09/01 06:40:35;;;;;;;33.05;11.55;;;;;;;29.15;39.82;101071.55;1679158;85;21167;-48
2021/09/01 06:43:02;;;;;;;15.95;6.28;;;;;;;29.10;40.25;101068.92;1668296;85;21061;-49
2021/09/01 06:45:29;;;;;;;22.90;7.60;;;;;;;29.03;39.89;101073.16;1680541;85;21093;-48
2021/09/01 06:47:56;;;;;;;65.32;21.00;;;;;;;29.00;38.32;101074.80;1669290;85;21109;-49
2021/09/01 06:50:25;;;;;;;117.77;37.95;;;;;;;28.98;40.23;101071.75;1661567;85;21580;-48
2021/09/01 06:52:51;;;;;;;27.15;11.83;;;;;;;28.93;40.79;101068.64;1666415;85;21037;-48
2021/09/01 06:55:20;;;;;;;27.52;11.65;;;;;;;28.88;41.25;101072.27;1663935;85;21066;-48
2021/09/01 06:57:47;;;;;;;41.73;16.80;;;;;;;28.83;41.48;101075.85;1676670;85;21036;-48
2021/09/01 07:00:16;;;;;;;21.73;9.75;;;;;;;28.78;41.62;101066.08;1685343;83;21108;-49
2021/09/01 07:02:43;;;;;;;21.93;9.48;;;;;;;28.73;41.62;101068.32;1747912;80;21073;-49
2021/09/01 07:05:12;;;;;;;16.10;9.53;;;;;;;28.69;41.62;101070.93;1754997;80;21029;-49
2021/09/01 07:07:42;;;;;;;14.50;8.63;;;;;;;28.66;41.73;101069.89;1759323;80;21510;-48
2021/09/01 07:10:10;;;;;;;10.98;5.95;;;;;;;28.66;41.84;101075.73;1765651;80;21069;-48
2021/09/01 07:12:38;;;;;;;5.70;4.00;;;;;;;28.64;41.72;101073.69;1763055;80;21082;-49
2021/09/01 07:15:08;;;;;;;8.45;6.03;;;;;;;28.63;41.81;101071.98;1755526;80;21293;-48
2021/09/01 07:17:38;;;;;;;8.88;4.92;;;;;;;28.61;41.79;101069.45;1760901;80;21010;-48
2021/09/01 07:20:07;;;;;;;7.58;5.10;;;;;;;28.62;41.98;101067.15;1743557;80;21053;-48
2021/09/01 07:22:33;;;;;;;11.22;6.50;;;;;;;28.66;42.20;101065.88;1749726;80;21568;-48
2021/09/01 07:25:03;;;;;;;9.18;5.40;;;;;;;28.70;42.03;101063.27;1754268;80;21038;-48
2021/09/01 07:27:30;;;;;;;9.23;4.65;;;;;;;28.77;41.47;101060.87;1751899;80;21014;-48
2021/09/01 07:29:59;;;;;;;8.53;5.35;;;;;;;28.84;40.66;101057.47;1760823;80;21013;-49
2021/09/01 07:32:25;;;;;;;7.10;4.75;;;;;;;28.90;40.56;101059.57;1757003;80;21545;-48
2021/09/01 07:34:52;;;;;;;6.40;3.85;;;;;;;28.95;40.60;101054.61;1752779;81;21078;-49
2021/09/01 07:37:19;;;;;;;8.65;4.20;;;;;;;29.01;39.71;101060.40;1779164;80;21046;-48
2021/09/01 07:39:46;;;;;;;6.30;3.85;;;;;;;29.05;39.08;101056.44;1765277;80;21509;-49
2021/09/01 07:42:14;;;;;;;6.65;4.65;;;;;;;29.07;38.56;101054.46;1783987;80;21090;-48
2021/09/01 07:44:40;;;;;;;4.40;3.00;;;;;;;29.07;37.93;101050.44;1764158;80;21494;-49
2021/09/01 07:47:07;;;;;;;4.33;2.70;;;;;;;29.09;37.07;101059.17;1747760;81;21065;-48
2021/09/01 07:49:34;;;;;;;4.87;2.45;;;;;;;29.09;37.10;101056.50;1768390;80;21443;-49
2021/09/01 07:52:01;;;;;;;4.05;2.50;;;;;;;29.09;36.82;101052.48;1767831;80;21034;-49
2021/09/01 07:54:29;;;;;;;6.70;3.35;;;;;;;29.10;36.86;101054.19;1754728;80;21062;-48
2021/09/01 07:56:55;;;;;;;8.75;3.55;;;;;;;29.10;36.36;101050.98;1744547;80;20987;-49
2021/09/01 07:59:23;;;;;;;3.70;2.70;;;;;;;29.11;36.28;101045.14;1749700;80;21156;-48
2021/09/01 08:01:49;;;;;;;4.08;3.30;;;;;;;29.11;36.77;101045.99;1764631;80;21054;-48
2021/09/01 08:04:17;;;;;;;2.30;2.20;;;;;;;29.12;37.04;101044.17;1759787;80;21027;-49
2021/09/01 08:06:44;;;;;;;7.22;2.60;;;;;;;29.14;37.40;101042.19;1746762;81;21022;-48
2021/09/01 08:09:12;;;;;;;5.37;3.27;;;;;;;29.18;37.85;101043.61;1761223;80;21031;-49
2021/09/01 08:11:40;;;;;;;3.20;2.90;;;;;;;29.20;38.58;101034.94;1767837;80;21046;-49
2021/09/01 08:14:07;;;;;;;5.60;2.70;;;;;;;29.22;38.84;101039.66;1755238;80;21039;-49
2021/09/01 08:16:35;;;;;;;2.17;1.98;;;;;;;29.21;38.79;101041.97;1753716;80;21320;-50
2021/09/01 08:19:02;;;;;;;2.60;2.00;;;;;;;29.22;38.43;101039.66;1760070;80;21034;-49
2021/09/01 08:21:29;;;;;;;5.50;2.02;;;;;;;29.24;38.59;101033.16;1751311;80;21487;-49
2021/09/01 08:23:56;;;;;;;4.08;2.25;;;;;;;29.28;39.01;101035.05;1761038;80;21035;-49
2021/09/01 08:26:23;;;;;;;3.00;1.98;;;;;;;29.29;38.85;101030.02;1768147;80;21070;-48
2021/09/01 08:28:51;;;;;;;4.28;2.10;;;;;;;29.32;38.98;101026.57;1766900;80;21069;-49
2021/09/01 08:31:19;;;;;;;3.17;1.92;;;;;;;29.35;38.80;101024.06;1769159;80;21010;-48
2021/09/01 08:33:45;;;;;;;2.77;2.30;;;;;;;29.38;39.97;101019.77;1751797;80;21049;-49
2021/09/01 08:36:12;;;;;;;8.30;6.20;;;;;;;29.41;39.63;101020.80;1762319;80;21467;-49
2021/09/01 08:38:41;;;;;;;6.22;4.58;;;;;;;29.40;38.85;101019.13;1750059;80;21020;-48
2021/09/01 08:41:07;;;;;;;12.93;9.63;;;;;;;29.42;38.69;101011.78;1760580;80;21292;-49
2021/09/01 08:43:34;;;;;;;7.97;7.05;;;;;;;29.45;39.03;101011.50;1767751;80;21022;-49
2021/09/01 08:46:02;;;;;;;6.47;4.17;;;;;;;29.50;38.93;101007.86;1751311;80;21038;-48
2021/09/01 08:48:29;;;;;;;2.85;2.10;;;;;;;29.54;39.10;100998.52;1760160;80;21506;-49
2021/09/01 08:50:58;;;;;;;4.50;1.95;;;;;;;29.56;39.69;100987.15;1765069;80;21038;-48
2021/09/01 08:53:25;;;;;;;4.03;3.50;;;;;;;29.59;38.68;100997.59;1758792;80;21030;-51
2021/09/01 08:55:52;;;;;;;2.17;1.90;;;;;;;29.63;38.73;101001.66;1775509;80;21056;-50
2021/09/01 08:58:20;;;;;;;3.17;2.33;;;;;;;29.66;38.79;100999.52;1685292;83;21093;-48
2021/09/01 09:00:46;;;;;;;2.50;2.25;;;;;;;29.68;39.28;100993.99;1733486;82;21031;-50
2021/09/01 09:03:13;;;;;;;3.00;2.30;;;;;;;29.71;39.23;100991.88;1760944;80;21501;-51
2021/09/01 09:05:43;;;;;;;2.90;2.08;;;;;;;29.72;39.10;100985.99;1744314;80;21042;-48
2021/09/01 09:08:12;;;;;;;2.10;1.60;;;;;;;29.74;38.87;100987.57;1756371;80;21093;-48
2021/09/01 09:10:46;;;;;;;3.52;2.92;;;;;;;29.76;38.87;100976.68;1783721;80;21053;-50
2021/09/01 09:13:18;;;;;;;4.47;2.08;;;;;;;29.78;38.44;100976.03;1763623;80;21050;-49
2021/09/01 09:15:44;;;;;;;7.20;5.67;;;;;;;29.81;37.43;100990.98;1687151;84;21015;-49
2021/09/01 09:18:29;;;;;;;5.53;3.10;;;;;;;29.84;37.81;100982.16;1664731;84;21570;-50
2021/09/01 09:21:16;;;;;;;4.47;4.08;;;;;;;29.89;38.00;100985.22;1626478;88;21026;-49
2021/09/01 09:23:44;;;;;;;10.80;3.42;;;;;;;29.95;37.72;100972.53;1629646;88;21078;-49
2021/09/01 09:26:26;;;;;;;5.10;2.40;;;;;;;29.98;37.45;100968.71;1631975;86;21065;-49
2021/09/01 09:29:10;;;;;;;1.72;1.62;;;;;;;30.01;37.05;100965.22;1631649;87;21076;-49
2021/09/01 09:31:39;;;;;;;6.10;2.02;;;;;;;30.06;37.35;100965.61;1637998;87;21093;-49
2021/09/01 09:34:18;;;;;;;4.60;2.33;;;;;;;30.12;37.38;100959.63;1626211;87;21101;-49
2021/09/01 09:37:10;;;;;;;2.20;2.00;;;;;;;30.13;37.49;100959.95;1619973;88;21063;-49
2021/09/01 09:39:46;;;;;;;4.05;1.75;;;;;;;30.15;36.79;100956.63;1593368;89;21098;-49
2021/09/01 09:42:34;;;;;;;3.10;1.90;;;;;;;30.10;36.74;100966.99;1593217;89;21098;-50
2021/09/01 09:45:20;;;;;;;3.10;1.80;;;;;;;30.07;36.90;100959.23;1593331;89;21113;-50
2021/09/01 09:47:55;;;;;;;3.62;2.00;;;;;;;30.03;35.89;100964.56;1573082;89;21070;-50
2021/09/01 09:50:22;;;;;;;5.58;3.90;;;;;;;30.01;37.38;100955.82;1538612;92;21121;-51
2021/09/01 09:52:51;;;;;;;4.20;2.50;;;;;;;30.05;38.53;100953.67;1538236;92;21559;-49
2021/09/01 09:55:20;;;;;;;2.55;2.20;;;;;;;30.08;39.08;100952.89;1540100;92;21566;-49
2021/09/01 09:58:00;;;;;;;4.60;1.90;;;;;;;30.12;38.52;100959.63;1557919;90;21605;-49
2021/09/01 10:00:30;;;;;;;3.62;2.10;;;;;;;30.13;38.48;100962.64;1582645;90;21129;-51
2021/09/01 10:02:57;;;;;;;4.15;1.90;;;;;;;30.16;38.39;100965.03;1570390;91;21029;-50
2021/09/01 10:05:27;;;;;;;2.10;1.75;;;;;;;30.15;38.39;100955.28;1589364;88;21075;-50
2021/09/01 10:07:55;;;;;;;2.95;1.80;;;;;;;30.16;38.58;100962.35;1588734;89;21560;-50
2021/09/01 10:10:22;;;;;;;7.85;1.70;;;;;;;30.17;38.07;100965.89;1571033;91;21120;-51
2021/09/01 10:12:49;;;;;;;3.62;1.60;;;;;;;30.17;36.95;100965.89;1609727;88;21066;-50
2021/09/01 10:15:31;;;;;;;2.20;1.85;;;;;;;30.15;36.78;100955.28;1613641;88;21097;-50
2021/09/01 10:18:05;;;;;;;4.97;1.92;;;;;;;30.13;36.86;100956.45;1585361;89;21144;-51
2021/09/01 10:20:32;;;;;;;4.25;2.45;;;;;;;30.08;36.05;100953.38;1615868;88;21079;-48
2021/09/01 10:23:07;;;;;;;3.83;1.77;;;;;;;30.07;36.16;100963.26;1591001;89;21118;-48
2021/09/01 10:25:52;;;;;;;10.00;2.33;;;;;;;30.08;34.93;100963.63;1591502;89;21192;-50
2021/09/01 10:28:32;;;;;;;5.80;1.82;;;;;;;30.08;36.05;100959.59;1618501;88;21099;-51
2021/09/01 10:31:19;;;;;;;7.42;2.37;;;;;;;30.06;37.69;100952.20;1592765;88;21065;-49
2021/09/01 10:33:51;;;;;;;4.92;1.80;;;;;;;30.02;38.09;100941.42;1526220;94;21052;-51
2021/09/01 10:36:29;;;;;;;7.20;2.25;;;;;;;30.00;35.50;100938.55;1549288;90;21211;-51
2021/09/01 10:39:16;;;;;;;3.50;1.55;;;;;;;30.00;32.80;100951.47;1566096;90;21113;-50
2021/09/01 10:41:43;;;;;;;3.58;1.37;;;;;;;30.02;31.22;100947.28;1493415;95;21625;-49
2021/09/01 10:44:24;;;;;;;7.90;2.65;;;;;;;30.00;29.61;100953.30;1482314;96;21097;-49
2021/09/01 10:47:01;;;;;;;2.58;1.67;;;;;;;30.00;29.52;100948.78;1482440;96;21074;-49
2021/09/01 10:49:57;;;;;;;8.05;5.58;;;;;;;30.02;28.55;100944.11;1478428;96;21626;-48
2021/09/01 10:52:24;;;;;;;4.65;2.15;;;;;;;30.01;28.46;100949.11;1467972;95;21152;-49
2021/09/01 10:54:51;;;;;;;3.50;1.80;;;;;;;30.01;30.90;100943.75;1482553;96;21105;-49
2021/09/01 10:57:24;;;;;;;4.85;1.90;;;;;;;29.99;29.68;100943.05;1482832;95;21127;-49
2021/09/01 10:59:50;;;;;;;3.65;1.62;;;;;;;29.97;32.49;100938.34;1481157;96;21609;-49
2021/09/01 11:02:19;;;;;;;2.00;1.42;;;;;;;29.97;34.35;100943.71;1469173;96;21054;-49
2021/09/01 11:04:55;;;;;;;2.17;1.50;;;;;;;29.95;35.80;100943.02;1500708;94;21095;-49
2021/09/01 11:07:24;;;;;;;8.05;1.92;;;;;;;29.93;36.36;100942.33;1497760;95;21105;-49
2021/09/01 11:10:00;;;;;;;3.08;1.80;;;;;;;29.92;37.24;100936.63;1495030;95;21144;-50
2021/09/01 11:12:29;;;;;;;4.08;1.90;;;;;;;29.90;37.91;100929.23;1507327;94;21121;-49
2021/09/01 11:14:56;;;;;;;4.62;1.82;;;;;;;29.91;37.84;100927.38;1503091;95;21080;-50
2021/09/01 11:17:28;;;;;;;5.65;1.70;;;;;;;29.91;38.02;100928.72;1500774;95;21258;-50
2021/09/01 11:19:58;;;;;;;2.20;1.60;;;;;;;29.92;38.05;100921.87;1495746;95;21095;-50
2021/09/01 11:22:35;;;;;;;7.83;2.17;;;;;;;29.94;37.59;100919.88;1504231;95;21178;-49
2021/09/01 11:25:13;;;;;;;3.30;1.75;;;;;;;30.02;37.26;100924.47;1489883;95;21089;-49
2021/09/01 11:27:55;;;;;;;4.67;1.67;;;;;;;30.06;37.75;100919.99;1492658;94;21096;-49
2021/09/01 11:30:18;;;;;;;2.35;1.60;;;;;;;30.10;38.10;100920.02;1509411;92;21618;-50
2021/09/01 11:32:45;;;;;;;2.08;1.45;;;;;;;30.10;37.57;100914.66;1540422;88;21057;-48
2021/09/01 11:35:19;;;;;;;3.33;1.40;;;;;;;30.06;37.20;100907.91;1634686;87;21021;-49